createdAt,value
2022-12-03T00:00:44.736Z,102574.41
2022-12-03T00:03:15.835Z,102575.09
2022-12-03T00:05:49.014Z,102576.75
2022-12-03T00:08:19.406Z,102573.34
2022-12-03T00:10:50.400Z,102571.48
2022-12-03T00:13:21.489Z,102578.33
2022-12-03T00:15:52.381Z,102579.98
2022-12-03T00:18:23.345Z,102574.09
2022-12-03T00:20:54.363Z,102583.43
2022-12-03T00:23:25.519Z,102577.44
2022-12-03T00:25:56.560Z,102579.13
2022-12-03T00:28:27.423Z,102578.13
2022-12-03T00:30:58.403Z,102585.77
2022-12-03T00:33:29.293Z,102578.81
2022-12-03T00:36:00.220Z,102578.70
2022-12-03T00:38:31.164Z,102587.34
2022-12-03T00:41:01.985Z,102584.80
2022-12-03T00:43:32.915Z,102583.91
2022-12-03T00:46:03.906Z,102583.80
2022-12-03T00:48:35.078Z,102579.28
2022-12-03T00:51:06.224Z,102582.05
2022-12-03T00:53:37.275Z,102581.05
2022-12-03T00:56:08.487Z,102582.41
2022-12-03T00:58:39.463Z,102589.09
2022-12-03T01:01:10.798Z,102589.78
2022-12-03T01:03:42.060Z,102594.70
2022-12-03T01:06:12.860Z,102592.62
2022-12-03T01:08:43.859Z,102599.19
2022-12-03T01:11:32.345Z,102593.98
2022-12-03T01:14:03.122Z,102602.31
2022-12-03T01:16:34.374Z,102597.90
2022-12-03T01:19:06.336Z,102597.68
2022-12-03T01:21:38.405Z,102601.77
2022-12-03T01:24:09.361Z,102601.77
2022-12-03T01:26:40.134Z,102603.45
2022-12-03T01:29:10.890Z,102599.05
2022-12-03T01:31:59.550Z,102602.24
2022-12-03T01:34:30.850Z,102604.78
2022-12-03T01:37:02.184Z,102602.16
2022-12-03T01:39:32.884Z,102602.16
2022-12-03T01:42:04.862Z,102607.05
2022-12-03T01:44:37.897Z,102608.58
2022-12-03T01:47:10.453Z,102606.83
2022-12-03T01:49:42.744Z,102605.06
2022-12-03T01:52:14.973Z,102604.17
2022-12-03T01:54:47.478Z,102611.70
2022-12-03T01:57:22.615Z,102603.98
2022-12-03T01:59:53.907Z,102611.62
2022-12-03T02:02:26.162Z,102604.45
2022-12-03T02:04:57.649Z,102618.94
2022-12-03T02:07:30.450Z,102611.88
2022-12-03T02:10:02.546Z,102609.00
2022-12-03T02:12:34.999Z,102615.77
2022-12-03T02:15:06.319Z,102617.53
2022-12-03T02:17:37.352Z,102616.52
2022-12-03T02:20:10.432Z,102616.74
2022-12-03T02:22:59.449Z,102618.61
2022-12-03T02:25:34.746Z,102621.72
2022-12-03T02:28:06.868Z,102628.28
2022-12-03T02:30:37.813Z,102625.95
2022-12-03T02:33:08.610Z,102625.05
2022-12-03T02:35:39.989Z,102623.24
2022-12-03T02:38:15.102Z,102620.53
2022-12-03T02:40:47.636Z,102626.08
2022-12-03T02:43:19.986Z,102625.52
2022-12-03T02:45:55.181Z,102631.28
2022-12-03T02:48:30.154Z,102634.32
2022-12-03T02:51:02.532Z,102622.41
2022-12-03T02:53:34.928Z,102624.76
2022-12-03T02:56:06.406Z,102621.61
2022-12-03T02:58:37.610Z,102624.70
2022-12-03T03:01:09.026Z,102625.33
2022-12-03T03:03:40.727Z,102642.47
2022-12-03T03:06:11.714Z,102636.53
2022-12-03T03:08:43.106Z,102642.73
2022-12-03T03:11:14.593Z,102643.30
2022-12-03T03:13:45.427Z,102647.30
2022-12-03T03:16:16.311Z,102640.56
2022-12-03T03:18:47.106Z,102650.63
2022-12-03T03:21:18.217Z,102646.32
2022-12-03T03:23:49.192Z,102643.97
2022-12-03T03:26:20.121Z,102653.28
2022-12-03T03:28:52.977Z,102653.28
2022-12-03T03:31:24.541Z,102651.71
2022-12-03T03:33:55.569Z,102654.37
2022-12-03T03:36:27.095Z,102652.16
2022-12-03T03:38:57.892Z,102657.44
2022-12-03T03:41:29.005Z,102650.37
2022-12-03T03:43:59.967Z,102652.36
2022-12-03T03:46:32.631Z,102655.02
2022-12-03T03:49:04.505Z,102658.00
2022-12-03T03:51:36.773Z,102658.56
2022-12-03T03:54:07.998Z,102662.20
2022-12-03T03:56:38.967Z,102658.79
2022-12-03T03:59:09.954Z,102662.20
2022-12-03T04:01:40.909Z,102665.52
2022-12-03T04:04:22.718Z,102663.95
2022-12-03T04:06:53.609Z,102661.52
2022-12-03T04:09:24.566Z,102666.72
2022-12-03T04:12:13.391Z,102672.90
2022-12-03T04:14:44.638Z,102663.62
2022-12-03T04:17:15.526Z,102664.70
2022-12-03T04:19:46.448Z,102665.60
2022-12-03T04:22:35.197Z,102665.83
2022-12-03T04:25:23.746Z,102674.02
2022-12-03T04:28:14.149Z,102670.91
2022-12-03T04:30:45.050Z,102678.88
2022-12-03T04:33:33.844Z,102687.08
2022-12-03T04:36:04.758Z,102688.42
2022-12-03T04:38:36.163Z,102691.50
2022-12-03T04:41:07.103Z,102692.05
2022-12-03T04:43:42.336Z,102696.50
2022-12-03T04:46:13.278Z,102694.28
2022-12-03T04:48:44.556Z,102704.93
2022-12-03T04:51:15.635Z,102701.59
2022-12-03T04:53:46.773Z,102708.23
2022-12-03T04:56:17.798Z,102701.71
2022-12-03T04:58:48.934Z,102707.46
2022-12-03T05:01:19.856Z,102708.13
2022-12-03T05:03:51.244Z,102715.09
2022-12-03T05:06:22.125Z,102715.32
2022-12-03T05:08:53.206Z,102719.19
2022-12-03T05:11:24.253Z,102719.86
2022-12-03T05:13:55.551Z,102728.58
2022-12-03T05:16:26.355Z,102727.80
2022-12-03T05:18:57.495Z,102727.56
2022-12-03T05:21:28.448Z,102734.42
2022-12-03T05:23:59.668Z,102735.43
2022-12-03T05:26:30.491Z,102736.52
2022-12-03T05:29:01.453Z,102737.66
2022-12-03T05:31:32.334Z,102740.40
2022-12-03T05:34:03.275Z,102735.55
2022-12-03T05:36:34.106Z,102745.59
2022-12-03T05:39:05.049Z,102753.34
2022-12-03T05:41:54.067Z,102751.47
2022-12-03T05:44:24.889Z,102752.02
2022-12-03T05:46:55.821Z,102750.38
2022-12-03T05:49:26.980Z,102753.66
2022-12-03T05:51:58.899Z,102748.92
2022-12-03T05:54:30.358Z,102756.32
2022-12-03T05:57:01.678Z,102756.34
2022-12-03T05:59:32.703Z,102751.43
2022-12-03T06:02:03.569Z,102750.72
2022-12-03T06:04:34.645Z,102754.02
2022-12-03T06:07:09.595Z,102754.16
2022-12-03T06:09:38.127Z,102749.86
2022-12-03T06:12:11.996Z,102753.22
2022-12-03T06:14:42.979Z,102755.31
2022-12-03T06:17:13.788Z,102751.45
2022-12-03T06:19:44.766Z,102756.23
2022-12-03T06:22:15.677Z,102760.42
2022-12-03T06:24:46.510Z,102758.78
2022-12-03T06:27:18.815Z,102755.87
2022-12-03T06:29:50.074Z,102747.27
2022-12-03T06:32:20.980Z,102751.68
2022-12-03T06:34:52.127Z,102754.45
2022-12-03T06:37:23.555Z,102750.80
2022-12-03T06:39:54.738Z,102744.66
2022-12-03T06:42:26.164Z,102745.79
2022-12-03T06:44:57.356Z,102743.92
2022-12-03T06:47:29.194Z,102741.96
2022-12-03T06:50:00.871Z,102741.02
2022-12-03T06:52:31.937Z,102742.38
2022-12-03T06:55:03.287Z,102732.64
2022-12-03T06:57:34.312Z,102736.49
2022-12-03T07:00:08.484Z,102737.68
2022-12-03T07:02:39.465Z,102735.23
2022-12-03T07:05:10.418Z,102730.40
2022-12-03T07:07:41.400Z,102727.58
2022-12-03T07:10:12.930Z,102732.78
2022-12-03T07:12:44.326Z,102721.17
2022-12-03T07:15:15.166Z,102718.61
2022-12-03T07:17:46.880Z,102723.65
2022-12-03T07:20:18.984Z,102725.19
2022-12-03T07:22:50.133Z,102723.09
2022-12-03T07:25:23.453Z,102728.11
2022-12-03T07:27:54.318Z,102729.28
2022-12-03T07:30:25.867Z,102725.02
2022-12-03T07:32:56.832Z,102721.19
2022-12-03T07:35:27.695Z,102718.36
2022-12-03T07:37:58.498Z,102723.17
2022-12-03T07:40:29.623Z,102718.31
2022-12-03T07:43:01.193Z,102717.42
2022-12-03T07:45:32.169Z,102726.95
2022-12-03T07:48:03.912Z,102724.83
2022-12-03T07:50:34.924Z,102721.05
2022-12-03T07:53:05.994Z,102729.01
2022-12-03T07:55:37.004Z,102719.56
2022-12-03T07:58:09.299Z,102723.70
2022-12-03T08:00:40.412Z,102720.83
2022-12-03T08:03:11.498Z,102720.16
2022-12-03T08:05:42.464Z,102722.23
2022-12-03T08:08:14.224Z,102717.24
2022-12-03T08:10:45.314Z,102714.89
2022-12-03T08:13:17.259Z,102722.06
2022-12-03T08:15:48.421Z,102717.17
2022-12-03T08:18:21.033Z,102717.34
2022-12-03T08:20:52.723Z,102714.76
2022-12-03T08:23:25.659Z,102720.68
2022-12-03T08:25:58.636Z,102716.30
2022-12-03T08:28:31.191Z,102704.87
2022-12-03T08:31:04.071Z,102712.38
2022-12-03T08:33:37.397Z,102707.91
2022-12-03T08:36:16.065Z,102705.35
2022-12-03T08:38:48.309Z,102712.83
2022-12-03T08:41:21.645Z,102708.35
2022-12-03T08:43:52.694Z,102709.52
2022-12-03T08:46:24.082Z,102702.16
2022-12-03T08:48:55.360Z,102706.67
2022-12-03T08:51:26.477Z,102710.01
2022-12-03T08:54:02.517Z,102706.99
2022-12-03T08:56:34.867Z,102708.75
2022-12-03T08:59:24.061Z,102715.66
2022-12-03T09:01:55.589Z,102710.19
2022-12-03T09:04:33.917Z,102708.19
2022-12-03T09:07:05.741Z,102707.64
2022-12-03T09:09:36.634Z,102706.73
2022-12-03T09:12:07.860Z,102710.73
2022-12-03T09:14:39.230Z,102708.09
2022-12-03T09:17:11.262Z,102704.12
2022-12-03T09:19:46.180Z,102706.99
2022-12-03T09:22:17.465Z,102706.69
2022-12-03T09:24:48.431Z,102711.48
2022-12-03T09:27:20.995Z,102704.60
2022-12-03T09:29:52.191Z,102705.55
2022-12-03T09:32:23.856Z,102702.98
2022-12-03T09:34:55.528Z,102703.15
2022-12-03T09:37:27.948Z,102704.85
2022-12-03T09:39:59.039Z,102707.42
2022-12-03T09:42:31.037Z,102704.85
2022-12-03T09:45:03.224Z,102698.10
2022-12-03T09:47:35.665Z,102712.04
2022-12-03T09:50:07.453Z,102698.57
2022-12-03T09:52:38.547Z,102701.47
2022-12-03T09:55:10.988Z,102702.49
2022-12-03T09:57:42.643Z,102705.14
2022-12-03T10:00:19.056Z,102698.25
2022-12-03T10:02:51.819Z,102699.45
2022-12-03T10:05:24.590Z,102691.06
2022-12-03T10:07:57.223Z,102694.89
2022-12-03T10:10:28.502Z,102690.73
2022-12-03T10:12:59.853Z,102692.25
2022-12-03T10:15:31.280Z,102696.20
2022-12-03T10:18:04.402Z,102696.73
2022-12-03T10:20:35.428Z,102687.97
2022-12-03T10:23:07.576Z,102691.44
2022-12-03T10:25:40.776Z,102689.68
2022-12-03T10:28:12.369Z,102693.84
2022-12-03T10:30:45.002Z,102697.30
2022-12-03T10:33:19.115Z,102697.87
2022-12-03T10:35:48.950Z,102699.98
2022-12-03T10:38:23.261Z,102697.09
2022-12-03T10:40:54.645Z,102697.73
2022-12-03T10:43:27.547Z,102703.68
2022-12-03T10:46:12.207Z,102696.96
2022-12-03T10:48:35.075Z,102702.14
2022-12-03T10:51:22.097Z,102694.52
2022-12-03T10:53:53.174Z,102699.82
2022-12-03T10:56:27.883Z,102705.84
2022-12-03T10:58:59.153Z,102700.63
2022-12-03T11:01:30.361Z,102706.22
2022-12-03T11:04:05.972Z,102701.29
2022-12-03T11:06:37.167Z,102705.69
2022-12-03T11:09:11.927Z,102701.81
2022-12-03T11:11:43.060Z,102699.39
2022-12-03T11:14:18.097Z,102701.14
2022-12-03T11:16:48.816Z,102698.34
2022-12-03T11:19:21.179Z,102695.94
2022-12-03T11:22:02.837Z,102692.50
2022-12-03T11:24:35.219Z,102694.23
2022-12-03T11:27:07.878Z,102705.30
2022-12-03T11:29:55.102Z,102696.24
2022-12-03T11:32:42.337Z,102709.14
2022-12-03T11:35:14.568Z,102698.25
2022-12-03T11:37:45.632Z,102701.59
2022-12-03T11:40:20.870Z,102699.12
2022-12-03T11:42:52.044Z,102702.28
2022-12-03T11:45:36.103Z,102700.50
2022-12-03T11:48:08.906Z,102697.30
2022-12-03T11:50:41.803Z,102696.81
2022-12-03T11:53:17.530Z,102694.42
2022-12-03T11:55:52.035Z,102695.16
2022-12-03T11:58:30.854Z,102702.84
2022-12-03T12:01:03.296Z,102698.74
2022-12-03T12:03:35.291Z,102699.55
2022-12-03T12:06:08.149Z,102696.66
2022-12-03T12:08:40.743Z,102701.00
2022-12-03T12:11:19.929Z,102697.72
2022-12-03T12:13:55.007Z,102703.63
2022-12-03T12:16:39.712Z,102707.08
2022-12-03T12:19:28.658Z,102706.14
2022-12-03T12:22:16.564Z,102699.30
2022-12-03T12:24:50.795Z,102702.12
2022-12-03T12:27:35.869Z,102706.69
2022-12-03T12:30:08.540Z,102700.58
2022-12-03T12:32:47.541Z,102699.00
2022-12-03T12:35:20.527Z,102692.33
2022-12-03T12:38:00.489Z,102700.97
2022-12-03T12:40:34.153Z,102695.84
2022-12-03T12:43:12.658Z,102700.58
2022-12-03T12:45:41.516Z,102701.59
2022-12-03T12:48:29.210Z,102700.95
2022-12-03T12:51:01.756Z,102699.84
2022-12-03T12:53:34.175Z,102696.17
2022-12-03T12:56:10.343Z,102697.75
2022-12-03T12:58:42.209Z,102701.13
2022-12-03T13:01:15.026Z,102694.89
2022-12-03T13:03:46.509Z,102701.30
2022-12-03T13:06:18.256Z,102700.30
2022-12-03T13:08:50.526Z,102700.47
2022-12-03T13:11:39.889Z,102693.12
2022-12-03T13:14:18.027Z,102698.09
2022-12-03T13:16:50.468Z,102698.40
2022-12-03T13:19:32.161Z,102696.48
2022-12-03T13:22:03.890Z,102700.66
2022-12-03T13:24:39.063Z,102705.41
2022-12-03T13:27:20.714Z,102698.73
2022-12-03T13:29:53.801Z,102704.34
2022-12-03T13:32:27.645Z,102703.62
2022-12-03T13:35:03.752Z,102703.30
2022-12-03T13:37:34.761Z,102704.59
2022-12-03T13:40:10.265Z,102703.48
2022-12-03T13:42:46.084Z,102707.08
2022-12-03T13:45:18.475Z,102702.74
2022-12-03T13:47:53.642Z,102713.48
2022-12-03T13:50:37.985Z,102703.78
2022-12-03T13:53:16.627Z,102717.59
2022-12-03T13:55:49.055Z,102722.13
2022-12-03T13:58:20.095Z,102714.67
2022-12-03T14:00:51.667Z,102708.98
2022-12-03T14:03:24.055Z,102709.55
2022-12-03T14:05:55.291Z,102708.81
2022-12-03T14:08:26.272Z,102711.47
2022-12-03T14:11:00.452Z,102714.20
2022-12-03T14:13:30.216Z,102710.90
2022-12-03T14:16:02.035Z,102709.92
2022-12-03T14:18:33.073Z,102716.20
2022-12-03T14:21:04.030Z,102713.28
2022-12-03T14:23:35.445Z,102704.59
2022-12-03T14:26:06.504Z,102713.11
2022-12-03T14:28:37.739Z,102714.17
2022-12-03T14:31:08.947Z,102710.63
2022-12-03T14:33:39.947Z,102714.73
2022-12-03T14:36:24.728Z,102714.86
2022-12-03T14:38:55.551Z,102714.30
2022-12-03T14:41:44.415Z,102720.98
2022-12-03T14:44:15.505Z,102712.55
2022-12-03T14:46:48.565Z,102724.48
2022-12-03T14:49:20.109Z,102722.98
2022-12-03T14:51:51.521Z,102723.91
2022-12-03T14:54:23.019Z,102725.70
2022-12-03T14:56:53.926Z,102720.78
2022-12-03T14:59:28.021Z,102724.32
2022-12-03T15:01:58.918Z,102722.86
2022-12-03T15:04:30.343Z,102719.27
2022-12-03T15:07:01.757Z,102715.80
2022-12-03T15:09:32.760Z,102718.98
2022-12-03T15:12:06.281Z,102718.17
2022-12-03T15:14:37.023Z,102710.22
2022-12-03T15:17:08.089Z,102724.32
2022-12-03T15:19:39.208Z,102713.16
2022-12-03T15:22:10.339Z,102724.85
2022-12-03T15:24:41.647Z,102727.02
2022-12-03T15:27:12.735Z,102727.67
2022-12-03T15:29:43.577Z,102733.62
2022-12-03T15:32:15.061Z,102731.21
2022-12-03T15:34:46.326Z,102728.41
2022-12-03T15:37:17.416Z,102730.19
2022-12-03T15:39:48.954Z,102732.52
2022-12-03T15:42:21.063Z,102728.03
2022-12-03T15:44:52.322Z,102723.84
2022-12-03T15:47:23.650Z,102724.00
2022-12-03T15:49:55.011Z,102734.11
2022-12-03T15:52:26.378Z,102736.38
2022-12-03T15:54:57.953Z,102735.00
2022-12-03T15:57:30.727Z,102734.92
2022-12-03T16:00:01.933Z,102739.11
2022-12-03T16:02:34.891Z,102735.73
2022-12-03T16:05:07.216Z,102739.11
2022-12-03T16:07:38.773Z,102739.97
2022-12-03T16:10:11.674Z,102729.78
2022-12-03T16:12:42.907Z,102734.06
2022-12-03T16:15:13.876Z,102731.70
2022-12-03T16:17:45.003Z,102733.73
2022-12-03T16:20:15.924Z,102735.41
2022-12-03T16:22:46.878Z,102738.70
2022-12-03T16:25:17.796Z,102732.79
2022-12-03T16:27:48.782Z,102745.84
2022-12-03T16:30:19.854Z,102754.52
2022-12-03T16:32:50.932Z,102751.78
2022-12-03T16:35:22.112Z,102741.97
2022-12-03T16:37:53.343Z,102752.48
2022-12-03T16:40:24.325Z,102749.27
2022-12-03T16:42:55.881Z,102749.51
2022-12-03T16:45:31.836Z,102765.24
2022-12-03T16:48:03.134Z,102751.95
2022-12-03T16:50:34.879Z,102755.54
2022-12-03T16:53:06.288Z,102753.45
2022-12-03T16:55:37.383Z,102761.75
2022-12-03T16:58:08.733Z,102753.24
2022-12-03T17:00:39.640Z,102757.74
2022-12-03T17:03:10.605Z,102757.19
2022-12-03T17:05:41.732Z,102762.80
2022-12-03T17:08:13.143Z,102754.45
2022-12-03T17:10:44.871Z,102755.19
2022-12-03T17:13:16.221Z,102769.12
2022-12-03T17:15:47.206Z,102763.77
2022-12-03T17:18:18.189Z,102769.36
2022-12-03T17:20:49.214Z,102765.91
2022-12-03T17:23:19.953Z,102781.20
2022-12-03T17:25:50.779Z,102773.46
2022-12-03T17:28:21.869Z,102775.78
2022-12-03T17:30:53.139Z,102778.17
2022-12-03T17:33:24.106Z,102773.94
2022-12-03T17:35:55.391Z,102779.53
2022-12-03T17:38:26.486Z,102774.49
2022-12-03T17:40:57.408Z,102779.70
2022-12-03T17:43:28.634Z,102778.64
2022-12-03T17:46:00.361Z,102780.52
2022-12-03T17:48:31.487Z,102780.34
2022-12-03T17:51:02.900Z,102775.13
2022-12-03T17:53:33.792Z,102789.50
2022-12-03T17:56:04.918Z,102777.52
2022-12-03T17:58:35.768Z,102783.08
2022-12-03T18:01:08.329Z,102778.02
2022-12-03T18:03:39.326Z,102773.52
2022-12-03T18:06:10.202Z,102773.44
2022-12-03T18:08:41.050Z,102766.52
2022-12-03T18:11:12.320Z,102778.56
2022-12-03T18:13:43.098Z,102777.92
2022-12-03T18:16:14.107Z,102776.31
2022-12-03T18:18:45.686Z,102773.92
2022-12-03T18:21:16.659Z,102778.24
2022-12-03T18:23:47.635Z,102774.64
2022-12-03T18:26:18.587Z,102783.37
2022-12-03T18:28:49.492Z,102781.06
2022-12-03T18:31:21.891Z,102780.58
2022-12-03T18:33:53.893Z,102772.88
2022-12-03T18:36:26.119Z,102786.56
2022-12-03T18:38:57.282Z,102792.59
2022-12-03T18:41:28.271Z,102782.73
2022-12-03T18:43:59.202Z,102794.89
2022-12-03T18:46:53.437Z,102789.27
2022-12-03T18:49:02.994Z,102780.37
2022-12-03T18:51:34.582Z,102798.89
2022-12-03T18:54:05.465Z,102801.82
2022-12-03T18:56:36.532Z,102803.30
2022-12-03T18:59:07.665Z,102796.16
2022-12-03T19:01:38.968Z,102797.91
2022-12-03T19:04:10.556Z,102805.78
2022-12-03T19:06:41.473Z,102801.28
2022-12-03T19:09:13.232Z,102807.48
2022-12-03T19:11:44.291Z,102811.22
2022-12-03T19:14:15.391Z,102810.23
2022-12-03T19:16:46.440Z,102817.20
2022-12-03T19:19:17.876Z,102810.23
2022-12-03T19:21:49.473Z,102823.55
2022-12-03T19:24:24.968Z,102822.09
2022-12-03T19:26:54.708Z,102824.30
2022-12-03T19:29:25.842Z,102819.89
2022-12-03T19:31:57.250Z,102819.77
2022-12-03T19:34:28.169Z,102817.78
2022-12-03T19:36:58.968Z,102821.92
2022-12-03T19:39:30.093Z,102821.20
2022-12-03T19:42:00.887Z,102824.03
2022-12-03T19:44:31.668Z,102826.33
2022-12-03T19:47:03.346Z,102814.41
2022-12-03T19:49:34.867Z,102810.00
2022-12-03T19:52:06.068Z,102819.86
2022-12-03T19:54:36.979Z,102822.33
2022-12-03T19:57:07.915Z,102812.08
2022-12-03T19:59:38.715Z,102815.12
2022-12-03T20:02:11.162Z,102809.64
2022-12-03T20:04:42.242Z,102808.15
2022-12-03T20:07:13.062Z,102805.59
2022-12-03T20:09:44.055Z,102807.34
2022-12-03T20:12:15.540Z,102810.00
2022-12-03T20:14:47.613Z,102817.92
2022-12-03T20:17:19.086Z,102813.78
2022-12-03T20:19:51.678Z,102803.97
2022-12-03T20:22:23.562Z,102809.19
2022-12-03T20:24:55.358Z,102814.41
2022-12-03T20:27:27.240Z,102813.69
2022-12-03T20:29:58.807Z,102818.91
2022-12-03T20:32:30.365Z,102815.36
2022-12-03T20:35:03.761Z,102823.31
2022-12-03T20:37:35.584Z,102823.49
2022-12-03T20:40:07.782Z,102808.34
2022-12-03T20:42:39.551Z,102816.84
2022-12-03T20:45:11.725Z,102815.58
2022-12-03T20:47:43.415Z,102810.91
2022-12-03T20:50:15.395Z,102816.84
2022-12-03T20:53:03.620Z,102820.21
2022-12-03T20:55:20.254Z,102815.23
2022-12-03T20:57:52.002Z,102809.19
2022-12-03T21:00:24.162Z,102809.41
2022-12-03T21:02:55.722Z,102807.80
2022-12-03T21:05:27.603Z,102807.98
2022-12-03T21:07:58.535Z,102804.43
2022-12-03T21:10:40.011Z,102812.21
2022-12-03T21:13:10.980Z,102802.98
2022-12-03T21:15:42.654Z,102803.66
2022-12-03T21:18:15.006Z,102801.49
2022-12-03T21:20:47.754Z,102810.95
2022-12-03T21:23:18.958Z,102802.30
2022-12-03T21:25:49.825Z,102813.60
2022-12-03T21:28:20.793Z,102802.53
2022-12-03T21:30:52.581Z,102800.52
2022-12-03T21:33:24.432Z,102807.98
2022-12-03T21:35:55.720Z,102810.19
2022-12-03T21:38:27.299Z,102806.77
2022-12-03T21:40:58.481Z,102803.75
2022-12-03T21:43:29.914Z,102804.83
2022-12-03T21:46:01.157Z,102803.04
2022-12-03T21:48:31.978Z,102810.45
2022-12-03T21:51:04.756Z,102802.98
2022-12-03T21:53:41.909Z,102804.73
2022-12-03T21:56:11.164Z,102802.90
2022-12-03T21:58:42.720Z,102813.30
2022-12-03T22:01:21.944Z,102807.39
2022-12-03T22:03:52.785Z,102804.43
2022-12-03T22:06:23.713Z,102806.91
2022-12-03T22:08:54.824Z,102800.73
2022-12-03T22:11:25.876Z,102804.20
2022-12-03T22:13:57.318Z,102799.62
2022-12-03T22:16:28.300Z,102796.51
2022-12-03T22:18:59.319Z,102793.40
2022-12-03T22:21:30.377Z,102797.00
2022-12-03T22:24:01.288Z,102801.78
2022-12-03T22:26:33.461Z,102803.48
2022-12-03T22:29:04.812Z,102807.80
2022-12-03T22:31:36.004Z,102800.02
2022-12-03T22:34:06.885Z,102796.37
2022-12-03T22:36:38.599Z,102795.70
2022-12-03T22:39:09.792Z,102794.72
2022-12-03T22:41:41.377Z,102788.09
2022-12-03T22:44:14.092Z,102792.73
2022-12-03T22:46:45.654Z,102800.56
2022-12-03T22:49:16.849Z,102798.27
2022-12-03T22:51:47.844Z,102799.16
2022-12-03T22:54:23.771Z,102795.78
2022-12-03T22:56:51.201Z,102803.56
2022-12-03T22:59:22.023Z,102800.52
2022-12-03T23:01:53.009Z,102799.02
2022-12-03T23:04:24.319Z,102791.70
2022-12-03T23:06:55.320Z,102807.98
2022-12-03T23:09:26.575Z,102793.63
2022-12-03T23:11:57.546Z,102798.76
2022-12-03T23:14:28.766Z,102798.58
2022-12-03T23:16:59.578Z,102803.48
2022-12-03T23:19:30.970Z,102800.56
2022-12-03T23:22:02.092Z,102811.09
2022-12-03T23:24:33.575Z,102805.15
2022-12-03T23:27:04.610Z,102802.77
2022-12-03T23:29:36.207Z,102814.86
2022-12-03T23:32:07.033Z,102811.53
2022-12-03T23:34:38.495Z,102819.53
2022-12-03T23:37:10.058Z,102813.60
2022-12-03T23:39:40.762Z,102817.78
2022-12-03T23:42:11.913Z,102822.55
2022-12-03T23:44:43.388Z,102815.30
2022-12-03T23:47:14.709Z,102822.98
2022-12-03T23:49:45.749Z,102825.73
2022-12-03T23:52:16.961Z,102812.92
2022-12-03T23:54:47.754Z,102810.66
2022-12-03T23:57:18.830Z,102814.79
2022-12-03T23:59:50.225Z,102815.78
